Lhunze, China
Current Conditions -  °F | °C
As of 1:50 PM on Sunday 23 Nov 2014 (Local Time) from VGHS Reporting Station
Haze Haze  
Wind Chill: 79°   Ceiling: Unl
Heat Index: 80°   Visibility: 1.5mi
Dew Point: 63°   Wind: 0mph
Humidity: 57%   Direction: NA
Pressure: 29.91"   Gusts: NA
Location:  28.42°N, 92.47°E
Report Text: VGHS 230550Z 00000KT 2500 HZ NSC 26/17 Q1013 BECMG S/VIS 3000M
Loading
Personal Weather Stations






























Interactive Weather Map New forecast layout! Learn more

10-Day Weather Forecast

Advertisements
Track Severe Weather on mobile